sensor_id;sensor_type;location;lat;lon;timestamp;P1;durP1;ratioP1;P2;durP2;ratioP2
18383;SDS011;9318;48.644;9.456;2023-08-17T00:01:31;0.60;;;0.60;;
18383;SDS011;9318;48.644;9.456;2023-08-17T00:03:58;0.70;;;0.70;;
18383;SDS011;9318;48.644;9.456;2023-08-17T00:06:24;0.60;;;0.60;;
18383;SDS011;9318;48.644;9.456;2023-08-17T00:08:51;0.70;;;0.70;;
18383;SDS011;9318;48.644;9.456;2023-08-17T00:11:20;0.68;;;0.68;;
18383;SDS011;9318;48.644;9.456;2023-08-17T00:13:46;0.70;;;0.70;;
18383;SDS011;9318;48.644;9.456;2023-08-17T00:16:13;0.60;;;0.60;;
18383;SDS011;9318;48.644;9.456;2023-08-17T00:18:40;0.60;;;0.60;;
18383;SDS011;9318;48.644;9.456;2023-08-17T00:21:07;0.70;;;0.70;;
18383;SDS011;9318;48.644;9.456;2023-08-17T00:23:33;0.80;;;0.80;;
18383;SDS011;9318;48.644;9.456;2023-08-17T00:26:00;0.70;;;0.70;;
18383;SDS011;9318;48.644;9.456;2023-08-17T00:28:28;0.70;;;0.70;;
18383;SDS011;9318;48.644;9.456;2023-08-17T00:30:55;0.70;;;0.70;;
18383;SDS011;9318;48.644;9.456;2023-08-17T00:33:22;0.57;;;0.57;;
18383;SDS011;9318;48.644;9.456;2023-08-17T00:35:48;0.75;;;0.75;;
18383;SDS011;9318;48.644;9.456;2023-08-17T00:38:15;0.60;;;0.60;;
18383;SDS011;9318;48.644;9.456;2023-08-17T00:40:42;0.50;;;0.50;;
18383;SDS011;9318;48.644;9.456;2023-08-17T00:43:09;0.60;;;0.60;;
18383;SDS011;9318;48.644;9.456;2023-08-17T00:45:37;0.60;;;0.60;;
18383;SDS011;9318;48.644;9.456;2023-08-17T00:48:04;0.77;;;0.77;;
18383;SDS011;9318;48.644;9.456;2023-08-17T00:50:33;0.70;;;0.70;;
18383;SDS011;9318;48.644;9.456;2023-08-17T00:53:00;0.80;;;0.80;;
18383;SDS011;9318;48.644;9.456;2023-08-17T00:55:27;0.70;;;0.70;;
18383;SDS011;9318;48.644;9.456;2023-08-17T00:57:55;0.63;;;0.63;;
18383;SDS011;9318;48.644;9.456;2023-08-17T01:00:22;0.73;;;0.73;;
18383;SDS011;9318;48.644;9.456;2023-08-17T01:02:51;0.80;;;0.80;;
18383;SDS011;9318;48.644;9.456;2023-08-17T01:05:20;0.70;;;0.70;;
18383;SDS011;9318;48.644;9.456;2023-08-17T01:07:47;0.70;;;0.70;;
18383;SDS011;9318;48.644;9.456;2023-08-17T01:10:13;0.70;;;0.70;;
18383;SDS011;9318;48.644;9.456;2023-08-17T01:12:42;0.68;;;0.68;;
18383;SDS011;9318;48.644;9.456;2023-08-17T01:15:14;0.70;;;0.70;;
18383;SDS011;9318;48.644;9.456;2023-08-17T01:17:47;0.70;;;0.70;;
18383;SDS011;9318;48.644;9.456;2023-08-17T01:20:22;0.73;;;0.73;;
18383;SDS011;9318;48.644;9.456;2023-08-17T01:22:52;0.63;;;0.63;;
18383;SDS011;9318;48.644;9.456;2023-08-17T01:25:23;0.73;;;0.73;;
18383;SDS011;9318;48.644;9.456;2023-08-17T01:27:50;0.80;;;0.80;;
18383;SDS011;9318;48.644;9.456;2023-08-17T01:30:17;0.70;;;0.70;;
18383;SDS011;9318;48.644;9.456;2023-08-17T01:32:47;0.70;;;0.70;;
18383;SDS011;9318;48.644;9.456;2023-08-17T01:35:19;0.77;;;0.77;;
18383;SDS011;9318;48.644;9.456;2023-08-17T01:37:53;0.80;;;0.80;;
18383;SDS011;9318;48.644;9.456;2023-08-17T01:40:26;0.60;;;0.60;;
18383;SDS011;9318;48.644;9.456;2023-08-17T01:42:54;0.80;;;0.80;;
18383;SDS011;9318;48.644;9.456;2023-08-17T01:45:22;0.70;;;0.70;;
18383;SDS011;9318;48.644;9.456;2023-08-17T01:47:50;0.80;;;0.80;;
18383;SDS011;9318;48.644;9.456;2023-08-17T01:50:17;0.70;;;0.70;;
18383;SDS011;9318;48.644;9.456;2023-08-17T01:52:44;0.77;;;0.77;;
18383;SDS011;9318;48.644;9.456;2023-08-17T01:55:10;0.80;;;0.80;;
18383;SDS011;9318;48.644;9.456;2023-08-17T01:57:38;0.80;;;0.80;;
18383;SDS011;9318;48.644;9.456;2023-08-17T02:00:06;0.73;;;0.73;;
18383;SDS011;9318;48.644;9.456;2023-08-17T02:02:35;0.70;;;0.70;;
18383;SDS011;9318;48.644;9.456;2023-08-17T02:05:02;0.80;;;0.80;;
18383;SDS011;9318;48.644;9.456;2023-08-17T02:07:30;0.80;;;0.80;;
18383;SDS011;9318;48.644;9.456;2023-08-17T02:09:57;0.70;;;0.70;;
18383;SDS011;9318;48.644;9.456;2023-08-17T02:12:24;0.70;;;0.70;;
18383;SDS011;9318;48.644;9.456;2023-08-17T02:14:52;0.70;;;0.70;;
18383;SDS011;9318;48.644;9.456;2023-08-17T02:17:19;0.70;;;0.70;;
18383;SDS011;9318;48.644;9.456;2023-08-17T02:19:46;0.70;;;0.70;;
18383;SDS011;9318;48.644;9.456;2023-08-17T02:22:13;0.90;;;0.90;;
18383;SDS011;9318;48.644;9.456;2023-08-17T02:24:40;0.70;;;0.70;;
18383;SDS011;9318;48.644;9.456;2023-08-17T02:27:08;0.80;;;0.80;;
18383;SDS011;9318;48.644;9.456;2023-08-17T02:29:35;0.80;;;0.80;;
18383;SDS011;9318;48.644;9.456;2023-08-17T02:32:04;0.80;;;0.80;;
18383;SDS011;9318;48.644;9.456;2023-08-17T02:34:31;0.70;;;0.70;;
18383;SDS011;9318;48.644;9.456;2023-08-17T02:36:57;0.70;;;0.70;;
18383;SDS011;9318;48.644;9.456;2023-08-17T02:39:24;0.80;;;0.80;;
18383;SDS011;9318;48.644;9.456;2023-08-17T02:41:51;0.70;;;0.70;;
18383;SDS011;9318;48.644;9.456;2023-08-17T02:44:18;0.68;;;0.68;;
18383;SDS011;9318;48.644;9.456;2023-08-17T02:46:45;0.80;;;0.80;;
18383;SDS011;9318;48.644;9.456;2023-08-17T02:49:13;0.73;;;0.73;;
18383;SDS011;9318;48.644;9.456;2023-08-17T02:51:39;0.70;;;0.70;;
18383;SDS011;9318;48.644;9.456;2023-08-17T02:54:06;0.70;;;0.70;;
18383;SDS011;9318;48.644;9.456;2023-08-17T02:56:33;0.70;;;0.70;;
18383;SDS011;9318;48.644;9.456;2023-08-17T02:58:59;0.80;;;0.80;;
18383;SDS011;9318;48.644;9.456;2023-08-17T03:01:26;0.80;;;0.80;;
18383;SDS011;9318;48.644;9.456;2023-08-17T03:03:54;0.70;;;0.70;;
18383;SDS011;9318;48.644;9.456;2023-08-17T03:06:22;0.70;;;0.70;;
18383;SDS011;9318;48.644;9.456;2023-08-17T03:08:48;0.70;;;0.70;;
18383;SDS011;9318;48.644;9.456;2023-08-17T03:11:17;0.80;;;0.80;;
18383;SDS011;9318;48.644;9.456;2023-08-17T03:13:45;0.80;;;0.80;;
18383;SDS011;9318;48.644;9.456;2023-08-17T03:16:13;0.77;;;0.77;;
18383;SDS011;9318;48.644;9.456;2023-08-17T03:18:40;0.70;;;0.70;;
18383;SDS011;9318;48.644;9.456;2023-08-17T03:21:08;0.70;;;0.70;;
18383;SDS011;9318;48.644;9.456;2023-08-17T03:23:36;0.70;;;0.70;;
18383;SDS011;9318;48.644;9.456;2023-08-17T03:26:02;0.70;;;0.70;;
18383;SDS011;9318;48.644;9.456;2023-08-17T03:28:29;0.70;;;0.70;;
18383;SDS011;9318;48.644;9.456;2023-08-17T03:30:56;0.70;;;0.70;;
18383;SDS011;9318;48.644;9.456;2023-08-17T03:33:23;0.55;;;0.55;;
18383;SDS011;9318;48.644;9.456;2023-08-17T03:35:50;0.60;;;0.60;;
18383;SDS011;9318;48.644;9.456;2023-08-17T03:38:16;0.70;;;0.70;;
18383;SDS011;9318;48.644;9.456;2023-08-17T03:40:44;0.60;;;0.60;;
18383;SDS011;9318;48.644;9.456;2023-08-17T03:43:12;0.70;;;0.70;;
18383;SDS011;9318;48.644;9.456;2023-08-17T03:45:40;0.55;;;0.55;;
18383;SDS011;9318;48.644;9.456;2023-08-17T03:48:07;0.60;;;0.60;;
18383;SDS011;9318;48.644;9.456;2023-08-17T03:50:34;0.70;;;0.70;;
18383;SDS011;9318;48.644;9.456;2023-08-17T03:53:01;0.70;;;0.70;;
18383;SDS011;9318;48.644;9.456;2023-08-17T03:55:28;0.60;;;0.60;;
18383;SDS011;9318;48.644;9.456;2023-08-17T03:57:56;0.55;;;0.55;;
18383;SDS011;9318;48.644;9.456;2023-08-17T04:00:23;0.70;;;0.70;;
18383;SDS011;9318;48.644;9.456;2023-08-17T04:02:49;0.73;;;0.73;;
18383;SDS011;9318;48.644;9.456;2023-08-17T04:05:16;0.60;;;0.60;;
18383;SDS011;9318;48.644;9.456;2023-08-17T04:07:43;0.70;;;0.70;;
18383;SDS011;9318;48.644;9.456;2023-08-17T04:10:09;0.73;;;0.73;;
18383;SDS011;9318;48.644;9.456;2023-08-17T04:12:37;0.70;;;0.70;;
18383;SDS011;9318;48.644;9.456;2023-08-17T04:15:06;0.77;;;0.77;;
18383;SDS011;9318;48.644;9.456;2023-08-17T04:17:33;0.80;;;0.80;;
18383;SDS011;9318;48.644;9.456;2023-08-17T04:19:59;0.75;;;0.75;;
18383;SDS011;9318;48.644;9.456;2023-08-17T04:22:26;0.60;;;0.60;;
18383;SDS011;9318;48.644;9.456;2023-08-17T04:24:53;0.80;;;0.80;;
18383;SDS011;9318;48.644;9.456;2023-08-17T04:27:19;0.80;;;0.80;;
18383;SDS011;9318;48.644;9.456;2023-08-17T04:29:46;0.70;;;0.70;;
18383;SDS011;9318;48.644;9.456;2023-08-17T04:32:15;0.80;;;0.80;;
18383;SDS011;9318;48.644;9.456;2023-08-17T04:34:41;0.70;;;0.70;;
18383;SDS011;9318;48.644;9.456;2023-08-17T04:37:08;0.70;;;0.70;;
18383;SDS011;9318;48.644;9.456;2023-08-17T04:39:35;0.80;;;0.80;;
18383;SDS011;9318;48.644;9.456;2023-08-17T04:42:02;0.70;;;0.70;;
18383;SDS011;9318;48.644;9.456;2023-08-17T04:44:29;0.70;;;0.70;;
18383;SDS011;9318;48.644;9.456;2023-08-17T04:46:56;0.57;;;0.57;;
18383;SDS011;9318;48.644;9.456;2023-08-17T04:49:24;0.70;;;0.70;;
18383;SDS011;9318;48.644;9.456;2023-08-17T04:51:51;0.80;;;0.80;;
18383;SDS011;9318;48.644;9.456;2023-08-17T04:54:17;0.70;;;0.70;;
18383;SDS011;9318;48.644;9.456;2023-08-17T04:56:44;0.60;;;0.60;;
18383;SDS011;9318;48.644;9.456;2023-08-17T04:59:11;0.60;;;0.60;;
18383;SDS011;9318;48.644;9.456;2023-08-17T05:01:38;0.85;;;0.85;;
18383;SDS011;9318;48.644;9.456;2023-08-17T05:04:05;0.70;;;0.70;;
18383;SDS011;9318;48.644;9.456;2023-08-17T05:06:33;0.73;;;0.73;;
18383;SDS011;9318;48.644;9.456;2023-08-17T05:09:02;0.70;;;0.70;;
18383;SDS011;9318;48.644;9.456;2023-08-17T05:11:30;0.80;;;0.80;;
18383;SDS011;9318;48.644;9.456;2023-08-17T05:13:56;0.70;;;0.70;;
18383;SDS011;9318;48.644;9.456;2023-08-17T05:16:23;0.63;;;0.63;;
18383;SDS011;9318;48.644;9.456;2023-08-17T05:18:50;0.50;;;0.50;;
18383;SDS011;9318;48.644;9.456;2023-08-17T05:21:16;0.60;;;0.60;;
18383;SDS011;9318;48.644;9.456;2023-08-17T05:23:44;0.77;;;0.77;;
18383;SDS011;9318;48.644;9.456;2023-08-17T05:26:11;0.75;;;0.75;;
18383;SDS011;9318;48.644;9.456;2023-08-17T05:28:38;0.85;;;0.85;;
18383;SDS011;9318;48.644;9.456;2023-08-17T05:31:05;0.60;;;0.60;;
18383;SDS011;9318;48.644;9.456;2023-08-17T05:33:32;0.73;;;0.73;;
18383;SDS011;9318;48.644;9.456;2023-08-17T05:35:59;0.70;;;0.70;;
18383;SDS011;9318;48.644;9.456;2023-08-17T05:38:25;0.65;;;0.65;;
18383;SDS011;9318;48.644;9.456;2023-08-17T05:40:55;0.60;;;0.60;;
18383;SDS011;9318;48.644;9.456;2023-08-17T05:43:22;0.65;;;0.65;;
18383;SDS011;9318;48.644;9.456;2023-08-17T05:45:49;0.70;;;0.70;;
18383;SDS011;9318;48.644;9.456;2023-08-17T05:48:18;0.93;;;0.93;;
18383;SDS011;9318;48.644;9.456;2023-08-17T05:50:45;0.68;;;0.68;;
18383;SDS011;9318;48.644;9.456;2023-08-17T05:53:12;0.60;;;0.60;;
18383;SDS011;9318;48.644;9.456;2023-08-17T05:55:39;0.70;;;0.70;;
18383;SDS011;9318;48.644;9.456;2023-08-17T05:58:07;0.90;;;0.90;;
18383;SDS011;9318;48.644;9.456;2023-08-17T06:00:34;0.70;;;0.70;;
18383;SDS011;9318;48.644;9.456;2023-08-17T06:03:01;0.70;;;0.70;;
18383;SDS011;9318;48.644;9.456;2023-08-17T06:05:28;0.80;;;0.80;;
18383;SDS011;9318;48.644;9.456;2023-08-17T06:07:55;0.60;;;0.60;;
18383;SDS011;9318;48.644;9.456;2023-08-17T06:10:23;0.60;;;0.60;;
18383;SDS011;9318;48.644;9.456;2023-08-17T06:12:51;0.70;;;0.70;;
18383;SDS011;9318;48.644;9.456;2023-08-17T06:15:19;0.55;;;0.55;;
18383;SDS011;9318;48.644;9.456;2023-08-17T06:17:46;0.70;;;0.70;;
18383;SDS011;9318;48.644;9.456;2023-08-17T06:20:15;0.60;;;0.60;;
18383;SDS011;9318;48.644;9.456;2023-08-17T06:22:43;0.60;;;0.60;;
18383;SDS011;9318;48.644;9.456;2023-08-17T06:25:09;0.70;;;0.70;;
18383;SDS011;9318;48.644;9.456;2023-08-17T06:27:36;0.70;;;0.70;;
18383;SDS011;9318;48.644;9.456;2023-08-17T06:30:04;0.60;;;0.60;;
18383;SDS011;9318;48.644;9.456;2023-08-17T06:35:00;0.68;;;0.68;;
18383;SDS011;9318;48.644;9.456;2023-08-17T06:37:27;0.50;;;0.50;;
18383;SDS011;9318;48.644;9.456;2023-08-17T06:39:54;0.50;;;0.50;;
18383;SDS011;9318;48.644;9.456;2023-08-17T06:42:21;0.70;;;0.70;;
18383;SDS011;9318;48.644;9.456;2023-08-17T06:44:47;0.60;;;0.60;;
18383;SDS011;9318;48.644;9.456;2023-08-17T06:47:14;0.60;;;0.60;;
18383;SDS011;9318;48.644;9.456;2023-08-17T06:49:42;0.50;;;0.50;;
18383;SDS011;9318;48.644;9.456;2023-08-17T06:52:09;0.50;;;0.50;;
18383;SDS011;9318;48.644;9.456;2023-08-17T06:54:36;0.70;;;0.70;;
18383;SDS011;9318;48.644;9.456;2023-08-17T06:57:03;0.80;;;0.80;;
18383;SDS011;9318;48.644;9.456;2023-08-17T06:59:30;0.60;;;0.60;;
18383;SDS011;9318;48.644;9.456;2023-08-17T07:01:58;0.57;;;0.57;;
18383;SDS011;9318;48.644;9.456;2023-08-17T07:04:25;0.70;;;0.70;;
18383;SDS011;9318;48.644;9.456;2023-08-17T07:06:53;0.50;;;0.50;;
18383;SDS011;9318;48.644;9.456;2023-08-17T07:09:20;0.50;;;0.50;;
18383;SDS011;9318;48.644;9.456;2023-08-17T07:11:47;0.50;;;0.50;;
18383;SDS011;9318;48.644;9.456;2023-08-17T07:14:13;0.60;;;0.60;;
18383;SDS011;9318;48.644;9.456;2023-08-17T07:16:40;0.60;;;0.60;;
18383;SDS011;9318;48.644;9.456;2023-08-17T07:19:07;0.60;;;0.60;;
18383;SDS011;9318;48.644;9.456;2023-08-17T07:21:34;0.60;;;0.60;;
18383;SDS011;9318;48.644;9.456;2023-08-17T07:24:10;0.52;;;0.52;;
18383;SDS011;9318;48.644;9.456;2023-08-17T07:26:38;0.60;;;0.60;;
18383;SDS011;9318;48.644;9.456;2023-08-17T07:29:05;0.50;;;0.50;;
18383;SDS011;9318;48.644;9.456;2023-08-17T07:31:32;0.52;;;0.52;;
18383;SDS011;9318;48.644;9.456;2023-08-17T07:34:02;0.50;;;0.50;;
18383;SDS011;9318;48.644;9.456;2023-08-17T07:36:29;0.68;;;0.68;;
18383;SDS011;9318;48.644;9.456;2023-08-17T07:38:56;0.50;;;0.50;;
18383;SDS011;9318;48.644;9.456;2023-08-17T07:41:25;0.50;;;0.50;;
18383;SDS011;9318;48.644;9.456;2023-08-17T07:43:52;0.50;;;0.50;;
18383;SDS011;9318;48.644;9.456;2023-08-17T07:46:19;0.60;;;0.60;;
18383;SDS011;9318;48.644;9.456;2023-08-17T07:48:45;0.50;;;0.50;;
18383;SDS011;9318;48.644;9.456;2023-08-17T07:51:12;0.50;;;0.50;;
18383;SDS011;9318;48.644;9.456;2023-08-17T07:53:39;0.40;;;0.40;;
18383;SDS011;9318;48.644;9.456;2023-08-17T07:56:05;0.40;;;0.40;;
18383;SDS011;9318;48.644;9.456;2023-08-17T07:58:33;0.47;;;0.47;;
18383;SDS011;9318;48.644;9.456;2023-08-17T08:01:00;0.50;;;0.50;;
18383;SDS011;9318;48.644;9.456;2023-08-17T08:03:27;0.40;;;0.40;;
18383;SDS011;9318;48.644;9.456;2023-08-17T08:05:54;0.45;;;0.45;;
18383;SDS011;9318;48.644;9.456;2023-08-17T08:08:20;0.50;;;0.50;;
18383;SDS011;9318;48.644;9.456;2023-08-17T08:10:47;0.50;;;0.50;;
18383;SDS011;9318;48.644;9.456;2023-08-17T08:13:14;0.40;;;0.40;;
18383;SDS011;9318;48.644;9.456;2023-08-17T08:15:42;0.40;;;0.40;;
18383;SDS011;9318;48.644;9.456;2023-08-17T08:18:09;0.30;;;0.30;;
18383;SDS011;9318;48.644;9.456;2023-08-17T08:20:35;0.30;;;0.30;;
18383;SDS011;9318;48.644;9.456;2023-08-17T08:23:02;0.43;;;0.43;;
18383;SDS011;9318;48.644;9.456;2023-08-17T08:25:29;0.38;;;0.38;;
18383;SDS011;9318;48.644;9.456;2023-08-17T08:27:56;0.30;;;0.30;;
18383;SDS011;9318;48.644;9.456;2023-08-17T08:30:22;0.20;;;0.20;;
18383;SDS011;9318;48.644;9.456;2023-08-17T08:32:51;0.30;;;0.30;;
18383;SDS011;9318;48.644;9.456;2023-08-17T08:35:18;0.30;;;0.30;;
18383;SDS011;9318;48.644;9.456;2023-08-17T08:37:44;0.30;;;0.30;;
18383;SDS011;9318;48.644;9.456;2023-08-17T08:40:12;0.20;;;0.20;;
18383;SDS011;9318;48.644;9.456;2023-08-17T08:42:39;0.25;;;0.25;;
18383;SDS011;9318;48.644;9.456;2023-08-17T08:45:06;0.30;;;0.30;;
18383;SDS011;9318;48.644;9.456;2023-08-17T08:47:33;0.30;;;0.30;;
18383;SDS011;9318;48.644;9.456;2023-08-17T08:50:04;0.20;;;0.20;;
18383;SDS011;9318;48.644;9.456;2023-08-17T08:52:32;0.20;;;0.20;;
18383;SDS011;9318;48.644;9.456;2023-08-17T08:55:03;0.20;;;0.20;;
18383;SDS011;9318;48.644;9.456;2023-08-17T08:57:38;0.20;;;0.20;;
18383;SDS011;9318;48.644;9.456;2023-08-17T09:00:05;0.17;;;0.17;;
18383;SDS011;9318;48.644;9.456;2023-08-17T09:02:34;0.10;;;0.10;;
18383;SDS011;9318;48.644;9.456;2023-08-17T09:05:04;0.10;;;0.10;;
18383;SDS011;9318;48.644;9.456;2023-08-17T09:07:32;0.20;;;0.20;;
18383;SDS011;9318;48.644;9.456;2023-08-17T09:10:00;0.20;;;0.20;;
18383;SDS011;9318;48.644;9.456;2023-08-17T09:12:28;0.10;;;0.10;;
18383;SDS011;9318;48.644;9.456;2023-08-17T09:14:56;0.30;;;0.30;;
18383;SDS011;9318;48.644;9.456;2023-08-17T09:17:23;0.10;;;0.10;;
18383;SDS011;9318;48.644;9.456;2023-08-17T09:19:50;0.28;;;0.28;;
18383;SDS011;9318;48.644;9.456;2023-08-17T09:22:22;0.20;;;0.20;;
18383;SDS011;9318;48.644;9.456;2023-08-17T09:24:49;0.10;;;0.10;;
18383;SDS011;9318;48.644;9.456;2023-08-17T09:27:16;0.20;;;0.20;;
18383;SDS011;9318;48.644;9.456;2023-08-17T09:29:43;0.20;;;0.20;;
18383;SDS011;9318;48.644;9.456;2023-08-17T09:32:11;0.20;;;0.20;;
18383;SDS011;9318;48.644;9.456;2023-08-17T09:34:41;0.20;;;0.20;;
18383;SDS011;9318;48.644;9.456;2023-08-17T09:37:08;0.20;;;0.20;;
18383;SDS011;9318;48.644;9.456;2023-08-17T09:39:36;0.10;;;0.10;;
18383;SDS011;9318;48.644;9.456;2023-08-17T09:42:03;0.20;;;0.20;;
18383;SDS011;9318;48.644;9.456;2023-08-17T09:44:32;0.20;;;0.20;;
18383;SDS011;9318;48.644;9.456;2023-08-17T09:46:59;0.20;;;0.20;;
18383;SDS011;9318;48.644;9.456;2023-08-17T09:49:29;0.20;;;0.20;;
18383;SDS011;9318;48.644;9.456;2023-08-17T09:51:58;0.20;;;0.20;;
18383;SDS011;9318;48.644;9.456;2023-08-17T09:54:25;0.20;;;0.20;;
18383;SDS011;9318;48.644;9.456;2023-08-17T09:56:54;0.20;;;0.20;;
18383;SDS011;9318;48.644;9.456;2023-08-17T09:59:21;0.20;;;0.20;;
18383;SDS011;9318;48.644;9.456;2023-08-17T10:01:49;0.20;;;0.20;;
18383;SDS011;9318;48.644;9.456;2023-08-17T10:04:19;0.20;;;0.20;;
18383;SDS011;9318;48.644;9.456;2023-08-17T10:06:47;0.13;;;0.13;;
18383;SDS011;9318;48.644;9.456;2023-08-17T10:09:16;0.15;;;0.15;;
18383;SDS011;9318;48.644;9.456;2023-08-17T10:11:46;0.30;;;0.30;;
18383;SDS011;9318;48.644;9.456;2023-08-17T10:14:18;0.20;;;0.20;;
18383;SDS011;9318;48.644;9.456;2023-08-17T10:16:49;0.20;;;0.20;;
18383;SDS011;9318;48.644;9.456;2023-08-17T10:19:21;0.20;;;0.20;;
18383;SDS011;9318;48.644;9.456;2023-08-17T10:21:56;0.10;;;0.10;;
18383;SDS011;9318;48.644;9.456;2023-08-17T10:24:32;0.20;;;0.20;;
18383;SDS011;9318;48.644;9.456;2023-08-17T10:27:01;0.10;;;0.10;;
18383;SDS011;9318;48.644;9.456;2023-08-17T10:29:30;0.10;;;0.10;;
18383;SDS011;9318;48.644;9.456;2023-08-17T10:31:57;0.15;;;0.15;;
18383;SDS011;9318;48.644;9.456;2023-08-17T10:34:26;0.20;;;0.20;;
18383;SDS011;9318;48.644;9.456;2023-08-17T10:36:54;0.20;;;0.20;;
18383;SDS011;9318;48.644;9.456;2023-08-17T10:39:27;0.15;;;0.15;;
18383;SDS011;9318;48.644;9.456;2023-08-17T10:41:54;0.20;;;0.20;;
18383;SDS011;9318;48.644;9.456;2023-08-17T10:44:39;0.10;;;0.10;;
18383;SDS011;9318;48.644;9.456;2023-08-17T10:49:49;0.20;;;0.20;;
18383;SDS011;9318;48.644;9.456;2023-08-17T10:52:24;0.10;;;0.10;;
18383;SDS011;9318;48.644;9.456;2023-08-17T10:54:52;0.20;;;0.20;;
18383;SDS011;9318;48.644;9.456;2023-08-17T10:57:30;0.20;;;0.20;;
18383;SDS011;9318;48.644;9.456;2023-08-17T11:00:06;0.20;;;0.20;;
18383;SDS011;9318;48.644;9.456;2023-08-17T11:02:45;0.20;;;0.20;;
18383;SDS011;9318;48.644;9.456;2023-08-17T11:08:00;0.20;;;0.20;;
18383;SDS011;9318;48.644;9.456;2023-08-17T11:10:27;0.15;;;0.15;;
18383;SDS011;9318;48.644;9.456;2023-08-17T11:12:54;0.20;;;0.20;;
18383;SDS011;9318;48.644;9.456;2023-08-17T11:15:26;0.30;;;0.30;;
18383;SDS011;9318;48.644;9.456;2023-08-17T11:18:02;0.20;;;0.20;;
18383;SDS011;9318;48.644;9.456;2023-08-17T11:20:30;0.20;;;0.20;;
18383;SDS011;9318;48.644;9.456;2023-08-17T11:22:57;0.30;;;0.30;;
18383;SDS011;9318;48.644;9.456;2023-08-17T11:25:25;0.30;;;0.30;;
18383;SDS011;9318;48.644;9.456;2023-08-17T11:27:52;0.32;;;0.32;;
18383;SDS011;9318;48.644;9.456;2023-08-17T11:30:19;0.20;;;0.20;;
18383;SDS011;9318;48.644;9.456;2023-08-17T11:32:48;0.20;;;0.20;;
18383;SDS011;9318;48.644;9.456;2023-08-17T11:35:16;0.20;;;0.20;;
18383;SDS011;9318;48.644;9.456;2023-08-17T11:37:42;0.20;;;0.20;;
18383;SDS011;9318;48.644;9.456;2023-08-17T11:40:10;0.28;;;0.28;;
18383;SDS011;9318;48.644;9.456;2023-08-17T11:42:37;0.30;;;0.30;;
18383;SDS011;9318;48.644;9.456;2023-08-17T11:45:05;0.28;;;0.28;;
18383;SDS011;9318;48.644;9.456;2023-08-17T11:47:34;0.30;;;0.30;;
18383;SDS011;9318;48.644;9.456;2023-08-17T11:50:02;0.20;;;0.20;;
18383;SDS011;9318;48.644;9.456;2023-08-17T11:52:30;0.28;;;0.28;;
18383;SDS011;9318;48.644;9.456;2023-08-17T11:54:58;0.32;;;0.32;;
18383;SDS011;9318;48.644;9.456;2023-08-17T11:57:25;0.20;;;0.20;;
18383;SDS011;9318;48.644;9.456;2023-08-17T11:59:52;0.20;;;0.20;;
18383;SDS011;9318;48.644;9.456;2023-08-17T12:02:20;0.30;;;0.30;;
18383;SDS011;9318;48.644;9.456;2023-08-17T12:04:47;0.40;;;0.40;;
18383;SDS011;9318;48.644;9.456;2023-08-17T12:07:15;0.30;;;0.30;;
18383;SDS011;9318;48.644;9.456;2023-08-17T12:09:43;0.20;;;0.20;;
18383;SDS011;9318;48.644;9.456;2023-08-17T12:12:10;0.30;;;0.30;;
18383;SDS011;9318;48.644;9.456;2023-08-17T12:14:40;0.30;;;0.30;;
18383;SDS011;9318;48.644;9.456;2023-08-17T12:17:07;0.30;;;0.30;;
18383;SDS011;9318;48.644;9.456;2023-08-17T12:19:40;0.30;;;0.30;;
18383;SDS011;9318;48.644;9.456;2023-08-17T12:22:07;0.20;;;0.20;;
18383;SDS011;9318;48.644;9.456;2023-08-17T12:24:36;0.30;;;0.30;;
18383;SDS011;9318;48.644;9.456;2023-08-17T12:27:04;0.30;;;0.30;;
18383;SDS011;9318;48.644;9.456;2023-08-17T12:29:32;0.30;;;0.30;;
18383;SDS011;9318;48.644;9.456;2023-08-17T12:31:58;0.40;;;0.40;;
18383;SDS011;9318;48.644;9.456;2023-08-17T12:34:27;0.30;;;0.30;;
18383;SDS011;9318;48.644;9.456;2023-08-17T12:36:54;0.32;;;0.32;;
18383;SDS011;9318;48.644;9.456;2023-08-17T12:39:20;0.28;;;0.28;;
18383;SDS011;9318;48.644;9.456;2023-08-17T12:41:49;0.30;;;0.30;;
18383;SDS011;9318;48.644;9.456;2023-08-17T12:44:15;0.40;;;0.40;;
18383;SDS011;9318;48.644;9.456;2023-08-17T12:46:42;0.40;;;0.40;;
18383;SDS011;9318;48.644;9.456;2023-08-17T12:49:09;0.40;;;0.40;;
18383;SDS011;9318;48.644;9.456;2023-08-17T12:51:35;0.30;;;0.30;;
18383;SDS011;9318;48.644;9.456;2023-08-17T12:54:03;0.40;;;0.40;;
18383;SDS011;9318;48.644;9.456;2023-08-17T12:56:30;0.30;;;0.30;;
18383;SDS011;9318;48.644;9.456;2023-08-17T12:58:58;0.40;;;0.40;;
18383;SDS011;9318;48.644;9.456;2023-08-17T13:01:24;0.40;;;0.40;;
18383;SDS011;9318;48.644;9.456;2023-08-17T13:03:51;0.40;;;0.40;;
18383;SDS011;9318;48.644;9.456;2023-08-17T13:06:19;0.40;;;0.40;;
18383;SDS011;9318;48.644;9.456;2023-08-17T13:08:46;0.50;;;0.50;;
18383;SDS011;9318;48.644;9.456;2023-08-17T13:11:13;0.30;;;0.30;;
18383;SDS011;9318;48.644;9.456;2023-08-17T13:13:39;0.30;;;0.30;;
18383;SDS011;9318;48.644;9.456;2023-08-17T13:16:07;0.40;;;0.40;;
18383;SDS011;9318;48.644;9.456;2023-08-17T13:18:36;0.30;;;0.30;;
18383;SDS011;9318;48.644;9.456;2023-08-17T13:21:02;0.40;;;0.40;;
18383;SDS011;9318;48.644;9.456;2023-08-17T13:23:29;0.40;;;0.40;;
18383;SDS011;9318;48.644;9.456;2023-08-17T13:25:57;0.45;;;0.45;;
18383;SDS011;9318;48.644;9.456;2023-08-17T13:28:24;0.30;;;0.30;;
18383;SDS011;9318;48.644;9.456;2023-08-17T13:30:54;0.35;;;0.35;;
18383;SDS011;9318;48.644;9.456;2023-08-17T13:33:22;0.40;;;0.40;;
18383;SDS011;9318;48.644;9.456;2023-08-17T13:35:49;0.40;;;0.40;;
18383;SDS011;9318;48.644;9.456;2023-08-17T13:38:16;0.50;;;0.50;;
18383;SDS011;9318;48.644;9.456;2023-08-17T13:40:43;0.50;;;0.50;;
18383;SDS011;9318;48.644;9.456;2023-08-17T13:43:10;0.50;;;0.50;;
18383;SDS011;9318;48.644;9.456;2023-08-17T13:45:38;0.40;;;0.40;;
18383;SDS011;9318;48.644;9.456;2023-08-17T13:48:05;0.30;;;0.30;;
18383;SDS011;9318;48.644;9.456;2023-08-17T13:50:34;0.50;;;0.50;;
18383;SDS011;9318;48.644;9.456;2023-08-17T13:53:03;0.40;;;0.40;;
18383;SDS011;9318;48.644;9.456;2023-08-17T13:55:30;0.40;;;0.40;;
18383;SDS011;9318;48.644;9.456;2023-08-17T13:57:57;0.35;;;0.35;;
18383;SDS011;9318;48.644;9.456;2023-08-17T14:00:24;0.35;;;0.35;;
18383;SDS011;9318;48.644;9.456;2023-08-17T14:02:52;0.40;;;0.40;;
18383;SDS011;9318;48.644;9.456;2023-08-17T14:05:19;0.50;;;0.50;;
18383;SDS011;9318;48.644;9.456;2023-08-17T14:07:47;0.50;;;0.50;;
18383;SDS011;9318;48.644;9.456;2023-08-17T14:10:14;0.47;;;0.47;;
18383;SDS011;9318;48.644;9.456;2023-08-17T14:12:41;0.50;;;0.50;;
18383;SDS011;9318;48.644;9.456;2023-08-17T14:15:08;0.50;;;0.50;;
18383;SDS011;9318;48.644;9.456;2023-08-17T14:17:35;0.50;;;0.50;;
18383;SDS011;9318;48.644;9.456;2023-08-17T14:20:02;0.50;;;0.50;;
18383;SDS011;9318;48.644;9.456;2023-08-17T14:22:29;0.40;;;0.40;;
18383;SDS011;9318;48.644;9.456;2023-08-17T14:24:58;0.50;;;0.50;;
18383;SDS011;9318;48.644;9.456;2023-08-17T14:27:25;0.40;;;0.40;;
18383;SDS011;9318;48.644;9.456;2023-08-17T14:29:52;0.50;;;0.50;;
18383;SDS011;9318;48.644;9.456;2023-08-17T14:32:18;0.40;;;0.40;;
18383;SDS011;9318;48.644;9.456;2023-08-17T14:34:45;0.40;;;0.40;;
18383;SDS011;9318;48.644;9.456;2023-08-17T14:37:12;0.40;;;0.40;;
18383;SDS011;9318;48.644;9.456;2023-08-17T14:39:39;0.52;;;0.52;;
18383;SDS011;9318;48.644;9.456;2023-08-17T14:42:07;0.40;;;0.40;;
18383;SDS011;9318;48.644;9.456;2023-08-17T14:44:34;0.52;;;0.52;;
18383;SDS011;9318;48.644;9.456;2023-08-17T14:47:00;0.40;;;0.40;;
18383;SDS011;9318;48.644;9.456;2023-08-17T14:49:27;0.50;;;0.50;;
18383;SDS011;9318;48.644;9.456;2023-08-17T14:51:54;0.43;;;0.43;;
18383;SDS011;9318;48.644;9.456;2023-08-17T14:54:21;0.60;;;0.60;;
18383;SDS011;9318;48.644;9.456;2023-08-17T14:56:47;0.40;;;0.40;;
18383;SDS011;9318;48.644;9.456;2023-08-17T14:59:15;0.40;;;0.40;;
18383;SDS011;9318;48.644;9.456;2023-08-17T15:01:42;0.40;;;0.40;;
18383;SDS011;9318;48.644;9.456;2023-08-17T15:04:10;0.30;;;0.30;;
18383;SDS011;9318;48.644;9.456;2023-08-17T15:06:36;0.40;;;0.40;;
18383;SDS011;9318;48.644;9.456;2023-08-17T15:09:03;0.50;;;0.50;;
18383;SDS011;9318;48.644;9.456;2023-08-17T15:11:30;0.50;;;0.50;;